Time;durP1;ratioP1;P1;durP2;ratioP2;P2;SDS_P1;SDS_P2;PMS_P1;PMS_P2;Temp;Humidity;BMP_temperature;BMP_pressure;BME280_temperature;BME280_humidity;BME280_pressure;Samples;Min_cycle;Max_cycle;Signal;HPM_P1;HPM_P2
2022/04/19 00:00:04;;;;;;;;;;;6.50;99.90;;;;;;5053365;28;19913;-66
2022/04/19 00:02:30;;;;;;;;;;;6.60;99.90;;;;;;5053450;28;19909;-67
2022/04/19 00:04:58;;;;;;;;;;;6.70;99.90;;;;;;5053130;28;19909;-66
2022/04/19 00:07:24;;;;;;;;;;;6.50;99.90;;;;;;5053471;28;20287;-67
2022/04/19 00:09:49;;;;;;;;;;;6.40;99.90;;;;;;5053384;28;19909;-67
2022/04/19 00:12:15;;;;;;;;;;;6.40;99.90;;;;;;5053643;28;19913;-64
2022/04/19 00:14:40;;;;;;;;;;;6.40;99.90;;;;;;5053239;28;19909;-66
2022/04/19 00:17:07;;;;;;;;;;;6.40;99.90;;;;;;5053046;28;20396;-66
2022/04/19 00:19:32;;;;;;;;;;;6.30;99.90;;;;;;5053506;28;19913;-65
2022/04/19 00:21:58;;;;;;;;;;;6.30;99.90;;;;;;5053057;28;19909;-67
2022/04/19 00:24:23;;;;;;;;;;;6.30;99.90;;;;;;5052766;28;19916;-67
2022/04/19 00:26:49;;;;;;;;;;;6.30;99.90;;;;;;5053915;28;20002;-67
2022/04/19 00:29:14;;;;;;;;;;;6.30;99.90;;;;;;5056624;28;19909;-66
2022/04/19 00:31:40;;;;;;;;;;;6.30;99.90;;;;;;5056557;28;20279;-67
2022/04/19 00:34:05;;;;;;;;;;;6.30;99.90;;;;;;5056823;28;19913;-66
2022/04/19 00:36:31;;;;;;;;;;;6.30;99.90;;;;;;5056513;28;19999;-66
2022/04/19 00:38:56;;;;;;;;;;;6.30;99.90;;;;;;5056399;28;19909;-67
2022/04/19 00:41:22;;;;;;;;;;;6.30;99.90;;;;;;5057010;28;19921;-65
2022/04/19 00:43:47;;;;;;;;;;;6.30;99.90;;;;;;5056400;28;19908;-65
2022/04/19 00:46:13;;;;;;;;;;;6.30;99.90;;;;;;5056633;28;19959;-66
2022/04/19 00:48:38;;;;;;;;;;;6.30;99.90;;;;;;5056295;28;20290;-67
2022/04/19 00:51:05;;;;;;;;;;;6.40;99.90;;;;;;5056237;28;20290;-67
2022/04/19 00:53:31;;;;;;;;;;;6.40;99.90;;;;;;5056201;28;19966;-67
2022/04/19 00:55:57;;;;;;;;;;;6.40;99.90;;;;;;5056400;28;20271;-66
2022/04/19 00:58:22;;;;;;;;;;;6.40;99.90;;;;;;5056094;28;19908;-65
2022/04/19 01:00:50;;;;;;;;;;;6.40;99.90;;;;;;5055975;28;20385;-66
2022/04/19 01:03:15;;;;;;;;;;;6.40;99.90;;;;;;5056289;28;19920;-66
2022/04/19 01:05:43;;;;;;;;;;;6.40;99.90;;;;;;5055937;28;19909;-65
2022/04/19 01:08:08;;;;;;;;;;;6.40;99.90;;;;;;5038048;28;19909;-67
2022/04/19 01:10:35;;;;;;;;;;;6.40;99.90;;;;;;5056463;28;19916;-65
2022/04/19 01:13:18;;;;;;;;;;;6.30;99.90;;;;;;5055895;28;19909;-66
2022/04/19 01:15:45;;;;;;;;;;;6.30;99.90;;;;;;5055840;28;19916;-68
2022/04/19 01:18:11;;;;;;;;;;;6.40;99.90;;;;;;5056279;28;19909;-68
2022/04/19 01:20:38;;;;;;;;;;;6.30;99.90;;;;;;5055595;28;19919;-69
2022/04/19 01:23:04;;;;;;;;;;;6.30;99.90;;;;;;5055615;28;19916;-68
2022/04/19 01:25:29;;;;;;;;;;;6.30;99.90;;;;;;5055644;28;19917;-68
2022/04/19 01:27:55;;;;;;;;;;;6.30;99.90;;;;;;5055852;28;20003;-69
2022/04/19 01:30:21;;;;;;;;;;;6.40;99.90;;;;;;5055535;28;19948;-65
2022/04/19 01:32:46;;;;;;;;;;;6.40;99.90;;;;;;5056086;28;19909;-66
2022/04/19 01:35:14;;;;;;;;;;;6.40;99.90;;;;;;5055414;28;19995;-66
2022/04/19 01:37:42;;;;;;;;;;;6.30;99.90;;;;;;5055504;28;19924;-66
2022/04/19 01:40:17;;;;;;;;;;;6.10;99.90;;;;;;5055263;28;20011;-66
2022/04/19 01:42:53;;;;;;;;;;;5.80;99.90;;;;;;5055906;28;20329;-65
2022/04/19 01:45:19;;;;;;;;;;;5.90;99.90;;;;;;5055249;28;19931;-65
2022/04/19 01:47:45;;;;;;;;;;;6.10;99.90;;;;;;5055209;28;19917;-66
2022/04/19 01:50:12;;;;;;;;;;;6.10;99.90;;;;;;5055140;28;19916;-65
2022/04/19 01:52:38;;;;;;;;;;;6.10;99.90;;;;;;5055158;28;20003;-67
2022/04/19 01:55:05;;;;;;;;;;;6.20;99.90;;;;;;5055056;28;19983;-65
2022/04/19 01:57:30;;;;;;;;;;;6.30;99.90;;;;;;5055002;28;19915;-66
2022/04/19 01:59:56;;;;;;;;;;;6.20;99.90;;;;;;5037013;28;19913;-67
2022/04/19 02:02:23;;;;;;;;;;;6.10;99.90;;;;;;5055204;28;19916;-66
2022/04/19 02:04:50;;;;;;;;;;;6.10;99.90;;;;;;5054883;28;19909;-65
2022/04/19 02:07:16;;;;;;;;;;;5.70;99.90;;;;;;5054852;28;19921;-66
2022/04/19 02:09:41;;;;;;;;;;;5.60;99.90;;;;;;5054739;28;20438;-65
2022/04/19 02:12:07;;;;;;;;;;;5.60;99.90;;;;;;5055295;28;19959;-65
2022/04/19 02:14:33;;;;;;;;;;;5.70;99.90;;;;;;5054621;28;19963;-66
2022/04/19 02:16:58;;;;;;;;;;;5.80;99.90;;;;;;5054940;28;19909;-65
2022/04/19 02:19:24;;;;;;;;;;;5.60;99.90;;;;;;5054510;28;19913;-67
2022/04/19 02:21:49;;;;;;;;;;;5.60;99.90;;;;;;5054832;28;19909;-66
2022/04/19 02:24:15;;;;;;;;;;;5.40;99.90;;;;;;5054281;28;19955;-65
2022/04/19 02:26:40;;;;;;;;;;;5.30;99.90;;;;;;5055041;28;20043;-66
2022/04/19 02:29:06;;;;;;;;;;;5.40;99.90;;;;;;5054656;28;19908;-65
2022/04/19 02:31:31;;;;;;;;;;;5.50;99.90;;;;;;5054924;28;20282;-67
2022/04/19 02:33:58;;;;;;;;;;;5.50;99.90;;;;;;5054280;28;20350;-64
2022/04/19 02:36:27;;;;;;;;;;;5.50;99.90;;;;;;5054547;28;20364;-66
2022/04/19 02:38:53;;;;;;;;;;;5.50;99.90;;;;;;5054132;28;19915;-65
2022/04/19 02:41:18;;;;;;;;;;;5.50;99.90;;;;;;5054179;28;19908;-66
2022/04/19 02:43:44;;;;;;;;;;;5.50;99.90;;;;;;5054174;28;19971;-65
2022/04/19 02:46:09;;;;;;;;;;;5.30;99.90;;;;;;5054350;28;19916;-66
2022/04/19 02:48:35;;;;;;;;;;;5.20;99.90;;;;;;5053992;28;19936;-66
2022/04/19 02:51:00;;;;;;;;;;;5.10;99.90;;;;;;5054069;28;19947;-65
2022/04/19 02:53:26;;;;;;;;;;;5.10;99.90;;;;;;5054247;28;19940;-66
2022/04/19 02:55:52;;;;;;;;;;;5.10;99.90;;;;;;5054471;28;20323;-65
2022/04/19 02:58:17;;;;;;;;;;;5.00;99.90;;;;;;5053921;28;20378;-66
2022/04/19 03:00:43;;;;;;;;;;;5.00;99.90;;;;;;5054091;28;20382;-65
2022/04/19 03:03:09;;;;;;;;;;;5.10;99.90;;;;;;5054113;28;19908;-65
2022/04/19 03:05:38;;;;;;;;;;;5.10;99.90;;;;;;5053822;28;19915;-65
2022/04/19 03:08:03;;;;;;;;;;;5.10;99.90;;;;;;5035896;28;19995;-66
2022/04/19 03:10:29;;;;;;;;;;;5.10;99.90;;;;;;5054246;28;20002;-66
2022/04/19 03:12:54;;;;;;;;;;;5.20;99.90;;;;;;5053684;28;19975;-66
2022/04/19 03:15:20;;;;;;;;;;;5.20;99.90;;;;;;5053698;28;19945;-65
2022/04/19 03:17:46;;;;;;;;;;;5.20;99.90;;;;;;5053611;28;20386;-67
2022/04/19 03:20:11;;;;;;;;;;;5.10;99.90;;;;;;5053762;28;19952;-66
2022/04/19 03:28:05;;;;;;;;;;;5.00;99.90;;;;;;5053553;28;19920;-67
2022/04/19 03:30:31;;;;;;;;;;;4.90;99.90;;;;;;5053469;28;20283;-65
2022/04/19 03:32:57;;;;;;;;;;;4.90;99.90;;;;;;5053459;28;19916;-66
2022/04/19 03:35:22;;;;;;;;;;;4.80;99.90;;;;;;5054001;28;19908;-65
2022/04/19 03:37:48;;;;;;;;;;;4.80;99.90;;;;;;5053394;28;19995;-65
2022/04/19 03:40:14;;;;;;;;;;;4.70;99.90;;;;;;5053594;28;19917;-65
2022/04/19 03:42:41;;;;;;;;;;;4.70;99.90;;;;;;5053344;28;19916;-66
2022/04/19 03:45:10;;;;;;;;;;;4.70;99.90;;;;;;5053907;28;19992;-68
2022/04/19 03:47:35;;;;;;;;;;;4.70;99.90;;;;;;5053325;28;19958;-68
2022/04/19 03:50:01;;;;;;;;;;;4.70;99.90;;;;;;5053308;28;20000;-67
2022/04/19 03:52:27;;;;;;;;;;;4.80;99.90;;;;;;5053299;28;19916;-68
2022/04/19 03:54:53;;;;;;;;;;;4.60;99.90;;;;;;5053527;28;19916;-67
2022/04/19 03:57:18;;;;;;;;;;;4.60;99.90;;;;;;5053225;28;20042;-67
2022/04/19 03:59:44;;;;;;;;;;;4.70;99.90;;;;;;5053434;28;19917;-67
2022/04/19 04:02:10;;;;;;;;;;;4.80;99.90;;;;;;5056091;28;20011;-68
2022/04/19 04:04:36;;;;;;;;;;;4.70;99.90;;;;;;5057124;28;19952;-68
2022/04/19 04:07:06;;;;;;;;;;;4.70;99.90;;;;;;5057382;28;19909;-68
2022/04/19 04:09:38;;;;;;;;;;;4.50;99.90;;;;;;5057073;28;19975;-69
2022/04/19 04:12:04;;;;;;;;;;;4.50;99.90;;;;;;5057356;28;19909;-68
2022/04/19 04:14:30;;;;;;;;;;;4.60;99.90;;;;;;5056915;28;19999;-67
2022/04/19 04:16:55;;;;;;;;;;;4.60;99.90;;;;;;5057223;28;19962;-67
2022/04/19 04:19:21;;;;;;;;;;;4.50;99.90;;;;;;5056790;28;19912;-69
2022/04/19 04:21:46;;;;;;;;;;;4.50;99.90;;;;;;5057186;28;19913;-69
2022/04/19 04:24:12;;;;;;;;;;;4.60;99.90;;;;;;5057146;28;19909;-67
2022/04/19 04:26:38;;;;;;;;;;;4.60;99.90;;;;;;5057022;28;19942;-67
2022/04/19 04:29:03;;;;;;;;;;;4.50;99.90;;;;;;5056681;28;19912;-67
2022/04/19 04:31:29;;;;;;;;;;;4.60;99.90;;;;;;5056873;28;19978;-67
2022/04/19 04:33:54;;;;;;;;;;;4.60;99.90;;;;;;5056618;28;19916;-68
2022/04/19 04:36:20;;;;;;;;;;;4.70;99.90;;;;;;5056520;28;19916;-69
2022/04/19 04:38:46;;;;;;;;;;;4.70;99.90;;;;;;5056781;28;19912;-68
2022/04/19 04:41:11;;;;;;;;;;;4.70;99.90;;;;;;5056432;28;20307;-68
2022/04/19 04:43:38;;;;;;;;;;;4.70;99.90;;;;;;5056663;28;19908;-67
2022/04/19 04:51:32;;;;;;;;;;;4.80;99.90;;;;;;5056316;28;19916;-67
2022/04/19 04:53:57;;;;;;;;;;;4.80;99.90;;;;;;5056793;28;19909;-68
2022/04/19 04:56:23;;;;;;;;;;;4.80;99.90;;;;;;5056451;28;20321;-68
2022/04/19 04:58:49;;;;;;;;;;;4.80;99.90;;;;;;5056073;28;20004;-67
2022/04/19 05:01:15;;;;;;;;;;;4.80;99.90;;;;;;5056107;28;19999;-68
2022/04/19 05:03:40;;;;;;;;;;;4.70;99.90;;;;;;5056048;28;19915;-67
2022/04/19 05:06:06;;;;;;;;;;;4.80;99.90;;;;;;5055988;28;20288;-68
2022/04/19 05:08:32;;;;;;;;;;;4.80;99.90;;;;;;5056227;28;19951;-68
2022/04/19 05:10:57;;;;;;;;;;;4.80;99.90;;;;;;5055889;28;19931;-68
2022/04/19 05:13:23;;;;;;;;;;;4.90;99.90;;;;;;5055286;28;19909;-68
2022/04/19 05:15:48;;;;;;;;;;;4.90;99.90;;;;;;5055736;28;20411;-68
2022/04/19 05:18:16;;;;;;;;;;;4.90;99.90;;;;;;5056004;28;20287;-69
2022/04/19 05:20:42;;;;;;;;;;;4.90;99.90;;;;;;5055888;28;19913;-70
2022/04/19 05:23:08;;;;;;;;;;;5.10;99.90;;;;;;5055966;28;19916;-65
2022/04/19 05:25:33;;;;;;;;;;;5.20;99.90;;;;;;5057315;28;20295;-65
2022/04/19 05:27:59;;;;;;;;;;;5.30;99.90;;;;;;5055568;28;19995;-66
2022/04/19 05:30:25;;;;;;;;;;;5.50;99.90;;;;;;5055795;28;20520;-67
2022/04/19 05:32:50;;;;;;;;;;;5.50;99.90;;;;;;5055507;28;20422;-67
2022/04/19 05:35:16;;;;;;;;;;;5.60;99.90;;;;;;5055736;28;19920;-66
2022/04/19 05:37:41;;;;;;;;;;;5.60;99.90;;;;;;5055390;28;19916;-66
2022/04/19 05:40:07;;;;;;;;;;;5.70;99.90;;;;;;5055322;28;19923;-67
2022/04/19 05:42:33;;;;;;;;;;;5.80;99.90;;;;;;5055315;28;19938;-65
2022/04/19 05:44:58;;;;;;;;;;;6.00;99.90;;;;;;5037347;28;19962;-66
2022/04/19 05:47:24;;;;;;;;;;;6.10;99.90;;;;;;5055270;28;19991;-67
2022/04/19 05:49:49;;;;;;;;;;;6.30;99.90;;;;;;5055472;28;19912;-66
2022/04/19 05:52:15;;;;;;;;;;;6.40;99.90;;;;;;5055186;28;19919;-66
2022/04/19 05:54:40;;;;;;;;;;;6.80;99.90;;;;;;5055116;28;19909;-65
2022/04/19 05:57:08;;;;;;;;;;;7.20;99.90;;;;;;5055078;28;20353;-66
2022/04/19 05:59:33;;;;;;;;;;;7.30;99.90;;;;;;5054997;28;20283;-65
2022/04/19 06:04:52;;;;;;;;;;;7.50;99.90;;;;;;5054964;28;19962;-67
2022/04/19 06:07:25;;;;;;;;;;;7.90;99.90;;;;;;5054884;28;20043;-69
2022/04/19 06:09:51;;;;;;;;;;;8.40;99.90;;;;;;5055035;28;19962;-66
2022/04/19 06:12:16;;;;;;;;;;;8.60;99.90;;;;;;5055014;28;19996;-65
2022/04/19 06:14:42;;;;;;;;;;;8.80;99.90;;;;;;5054588;28;19909;-65
2022/04/19 06:17:11;;;;;;;;;;;8.60;99.90;;;;;;5054661;28;20289;-67
2022/04/19 06:19:37;;;;;;;;;;;8.50;99.90;;;;;;5054792;28;19916;-65
2022/04/19 06:22:04;;;;;;;;;;;8.50;99.90;;;;;;5054542;28;19909;-66
2022/04/19 06:24:29;;;;;;;;;;;8.60;99.90;;;;;;5054294;28;19959;-66
2022/04/19 06:26:55;;;;;;;;;;;8.70;99.90;;;;;;5036363;28;19916;-66
2022/04/19 06:29:20;;;;;;;;;;;9.30;99.90;;;;;;5054690;28;19909;-67
2022/04/19 06:31:46;;;;;;;;;;;11.40;99.90;;;;;;5054348;28;19915;-67
2022/04/19 06:34:12;;;;;;;;;;;13.60;99.90;;;;;;5054316;28;19909;-67
2022/04/19 06:36:37;;;;;;;;;;;15.10;99.90;;;;;;5054264;28;19917;-68
2022/04/19 06:39:03;;;;;;;;;;;16.20;99.90;;;;;;5054172;28;20332;-67
2022/04/19 06:41:29;;;;;;;;;;;16.60;99.90;;;;;;5054489;28;19908;-66
2022/04/19 06:43:57;;;;;;;;;;;16.80;99.90;;;;;;5054126;28;19916;-67
2022/04/19 06:46:24;;;;;;;;;;;17.60;99.90;;;;;;5054453;28;19913;-66
2022/04/19 06:48:50;;;;;;;;;;;18.20;99.90;;;;;;5054056;28;20393;-67
2022/04/19 06:51:15;;;;;;;;;;;19.00;99.90;;;;;;5054307;28;19913;-67
2022/04/19 06:53:41;;;;;;;;;;;18.50;99.90;;;;;;5054574;28;20287;-68
2022/04/19 06:56:07;;;;;;;;;;;17.30;99.90;;;;;;5053916;28;19916;-66
2022/04/19 06:58:32;;;;;;;;;;;17.00;99.90;;;;;;5054444;28;19916;-67
2022/04/19 07:00:58;;;;;;;;;;;17.10;99.90;;;;;;5053743;28;19997;-67
2022/04/19 07:03:26;;;;;;;;;;;16.90;99.90;;;;;;5053819;28;19912;-67
2022/04/19 07:05:52;;;;;;;;;;;17.30;99.90;;;;;;5053815;28;19952;-68
2022/04/19 07:08:17;;;;;;;;;;;18.90;99.90;;;;;;5053763;28;19931;-66
2022/04/19 07:10:43;;;;;;;;;;;20.70;98.40;;;;;;5053999;28;19909;-68
2022/04/19 07:13:09;;;;;;;;;;;21.40;96.90;;;;;;5053651;28;20291;-68
2022/04/19 07:15:35;;;;;;;;;;;22.00;95.50;;;;;;5053875;28;19916;-67
2022/04/19 07:18:01;;;;;;;;;;;22.30;94.80;;;;;;5053706;28;19913;-67
2022/04/19 07:28:39;;;;;;;8.00;2.40;;;24.30;89.00;;;;;;5052836;28;20024;-68
2022/04/19 07:31:05;;;;;;;5.35;1.95;;;24.50;86.70;;;;;;5053199;28;20403;-67
2022/04/19 07:33:31;;;;;;;5.70;1.77;;;24.50;85.00;;;;;;5053007;28;20033;-68
2022/04/19 07:35:57;;;;;;;11.73;2.40;;;24.60;84.80;;;;;;5055325;28;20029;-68
2022/04/19 07:38:23;;;;;;;5.22;1.58;;;25.40;83.30;;;;;;5059910;28;20398;-67
2022/04/19 07:40:49;;;;;;;6.28;2.10;;;25.40;80.70;;;;;;5059542;28;20036;-68
2022/04/19 07:43:15;;;;;;;7.10;2.13;;;25.40;79.70;;;;;;5059570;28;20096;-66
2022/04/19 07:45:41;;;;;;;4.25;1.85;;;25.30;78.90;;;;;;5059545;28;20025;-67
2022/04/19 07:48:07;;;;;;;5.75;1.95;;;24.90;80.00;;;;;;5059480;28;20091;-68
2022/04/19 07:50:37;;;;;;;5.47;1.88;;;24.70;79.50;;;;;;5041600;28;20033;-68
2022/04/19 07:53:03;;;;;;;7.70;2.13;;;25.50;78.60;;;;;;5059523;28;20028;-67
2022/04/19 07:55:29;;;;;;;4.90;1.23;;;26.80;78.10;;;;;;5059482;28;20025;-67
2022/04/19 07:57:54;;;;;;;;;;;25.60;73.80;;;;;;5059674;28;20025;-68
2022/04/19 08:00:21;;;;;;;5.65;1.67;;;23.80;78.90;;;;;;5059514;28;19908;-67
2022/04/19 08:02:47;;;;;;;3.97;1.80;;;23.40;76.90;;;;;;5060059;28;20020;-66
2022/04/19 08:05:13;;;;;;;7.82;1.30;;;23.40;78.80;;;;;;5059409;28;20060;-67
2022/04/19 08:07:38;;;;;;;;;;;24.70;73.50;;;;;;5060105;28;20021;-66
2022/04/19 08:10:05;;;;;;;3.47;1.20;;;22.70;78.50;;;;;;5059366;28;19911;-67
2022/04/19 08:12:31;;;;;;;6.97;1.42;;;25.30;75.10;;;;;;5059385;28;20075;-67
2022/04/19 08:14:57;;;;;;;4.10;1.35;;;25.00;71.00;;;;;;5059218;28;20021;-68
2022/04/19 08:17:23;;;;;;;2.72;1.33;;;26.60;70.60;;;;;;5059340;28;20502;-68
2022/04/19 08:19:48;;;;;;;4.97;1.60;;;27.30;69.20;;;;;;5059251;28;20544;-68
2022/04/19 08:22:16;;;;;;;3.58;1.30;;;27.90;65.90;;;;;;5059286;28;20027;-67
2022/04/19 08:24:42;;;;;;;4.57;1.48;;;29.00;64.40;;;;;;5059061;28;20039;-68
2022/04/19 08:27:07;;;;;;;4.28;1.27;;;29.80;62.60;;;;;;5059549;28;20393;-67
2022/04/19 08:29:33;;;;;;;4.93;1.75;;;30.90;58.50;;;;;;5059210;28;20091;-67
2022/04/19 08:31:59;;;;;;;5.72;1.50;;;27.60;58.50;;;;;;5041217;28;20515;-68
2022/04/19 08:34:25;;;;;;;4.47;1.30;;;28.00;60.00;;;;;;5058937;28;20032;-66
2022/04/19 08:36:50;;;;;;;5.53;1.52;;;29.10;59.00;;;;;;5059420;28;20024;-68
2022/04/19 08:39:16;;;;;;;3.88;1.70;;;28.90;58.40;;;;;;5059057;28;20033;-67
2022/04/19 08:41:43;;;;;;;6.05;1.48;;;28.70;57.70;;;;;;5059379;28;20029;-68
2022/04/19 08:44:09;;;;;;;5.03;1.65;;;29.50;56.00;;;;;;5059094;28;20028;-67
2022/04/19 08:46:41;;;;;;;4.82;1.23;;;30.30;56.30;;;;;;5059228;28;20033;-67
2022/04/19 08:49:07;;;;;;;4.45;1.50;;;30.00;55.10;;;;;;5054879;28;20025;-68
2022/04/19 08:51:34;;;;;;;9.90;1.60;;;29.10;56.30;;;;;;5056422;28;20032;-68
2022/04/19 08:59:32;;;;;;;7.68;1.60;;;29.80;54.80;;;;;;5055988;28;20040;-68
2022/04/19 09:02:02;;;;;;;3.75;1.40;;;30.90;53.40;;;;;;5055890;28;20103;-69
2022/04/19 09:04:27;;;;;;;;;;;30.50;51.90;;;;;;5055640;28;20387;-67
2022/04/19 09:07:00;;;;;;;4.60;2.15;;;26.20;53.20;;;;;;5055837;28;19958;-67
2022/04/19 09:09:28;;;;;;;2.58;1.58;;;25.00;58.80;;;;;;5055487;28;20087;-67
2022/04/19 09:12:05;;;;;;;3.58;1.42;;;27.40;56.10;;;;;;5055799;28;20452;-68
2022/04/19 09:14:31;;;;;;;;;;;27.00;54.70;;;;;;5055815;28;20035;-68
2022/04/19 09:17:10;;;;;;;3.67;1.60;;;22.90;59.60;;;;;;5055413;28;19905;-66
2022/04/19 09:19:37;;;;;;;5.63;1.35;;;24.70;59.80;;;;;;5055833;28;20029;-67
2022/04/19 09:22:03;;;;;;;4.93;1.55;;;27.30;54.90;;;;;;5055276;28;20075;-68
2022/04/19 09:24:31;;;;;;;3.10;1.40;;;28.10;53.80;;;;;;5055525;28;20033;-68
2022/04/19 09:26:57;;;;;;;4.15;1.23;;;29.60;52.40;;;;;;5055517;28;20036;-68
2022/04/19 09:29:27;;;;;;;4.55;1.30;;;29.90;50.70;;;;;;5055406;28;20030;-68
2022/04/19 09:31:57;;;;;;;3.97;1.30;;;30.10;51.50;;;;;;5055114;28;20162;-68
2022/04/19 09:34:30;;;;;;;3.08;1.77;;;26.80;51.60;;;;;;5054475;28;20021;-68
2022/04/19 09:37:10;;;;;;;12.25;1.42;;;27.50;53.30;;;;;;5054490;28;20024;-68
2022/04/19 09:39:37;;;;;;;2.38;1.17;;;28.20;53.20;;;;;;5054123;28;20025;-67
2022/04/19 09:42:09;;;;;;;3.75;1.25;;;28.30;51.10;;;;;;5053980;28;20098;-67
2022/04/19 09:44:39;;;;;;;2.10;1.00;;;27.40;50.50;;;;;;5055175;28;20017;-68
2022/04/19 09:47:09;;;;;;;5.18;1.42;;;26.80;51.20;;;;;;5054806;28;20383;-66
2022/04/19 09:49:51;;;;;;;4.10;1.45;;;27.20;50.70;;;;;;5054775;28;20020;-67
2022/04/19 09:52:23;;;;;;;5.80;2.42;;;25.20;53.80;;;;;;5055367;28;20082;-67
2022/04/19 09:55:11;;;;;;;11.50;2.25;;;23.60;57.00;;;;;;5054961;28;20036;-65
2022/04/19 09:57:40;;;;;;;5.22;2.10;;;22.20;60.00;;;;;;5054966;28;20040;-67
2022/04/19 10:00:06;;;;;;;5.43;1.90;;;20.90;62.70;;;;;;5054430;28;20025;-67
2022/04/19 10:08:20;;;;;;;6.45;1.70;;;18.20;66.80;;;;;;5055031;28;20399;-66
2022/04/19 10:10:51;;;;;;;11.13;2.22;;;17.40;69.40;;;;;;5054074;28;20039;-68
2022/04/19 10:13:19;;;;;;;8.70;1.95;;;16.90;71.80;;;;;;5054355;28;20398;-67
2022/04/19 10:15:45;;;;;;;6.07;1.55;;;20.40;66.80;;;;;;5054191;28;20054;-66
2022/04/19 10:18:10;;;;;;;4.22;1.23;;;25.30;57.80;;;;;;5054513;28;20028;-69
2022/04/19 10:20:54;;;;;;;5.30;1.10;;;26.90;54.10;;;;;;5054112;28;20029;-70
2022/04/19 10:23:21;;;;;;;2.28;0.85;;;28.40;53.30;;;;;;5054433;28;20055;-67
2022/04/19 10:25:48;;;;;;;3.38;1.00;;;30.30;50.40;;;;;;5053905;28;20049;-67
2022/04/19 10:28:27;;;;;;;3.42;0.85;;;31.30;47.70;;;;;;5054345;28;20032;-69
2022/04/19 10:30:53;;;;;;;4.10;1.20;;;28.10;49.40;;;;;;5053977;28;20063;-67
2022/04/19 10:33:48;;;;;;;3.63;1.23;;;24.40;54.60;;;;;;5054224;28;20158;-67
2022/04/19 10:36:18;;;;;;;4.20;1.40;;;22.00;59.50;;;;;;5054206;28;20021;-65
2022/04/19 10:38:46;;;;;;;5.38;1.83;;;20.50;62.80;;;;;;5053818;28;20035;-67
2022/04/19 10:41:47;;;;;;;1.60;1.20;;;19.60;64.90;;;;;;5035838;28;20074;-66
2022/04/19 10:44:35;;;;;;;5.00;1.23;;;22.10;64.20;;;;;;5053774;28;20091;-67
2022/04/19 10:47:22;;;;;;;4.75;1.23;;;26.50;56.60;;;;;;5054323;28;20021;-68
2022/04/19 10:50:07;;;;;;;3.90;1.30;;;22.90;57.10;;;;;;5054243;28;20378;-66
2022/04/19 10:52:57;;;;;;;2.58;1.30;;;21.30;60.30;;;;;;5053894;28;20028;-66
2022/04/19 10:55:25;;;;;;;3.38;1.25;;;20.70;61.10;;;;;;5053493;28;20511;-68
2022/04/19 10:58:16;;;;;;;3.35;1.15;;;20.10;62.10;;;;;;5053515;28;20032;-67
2022/04/19 11:00:42;;;;;;;4.75;1.35;;;19.80;62.40;;;;;;5053719;28;20111;-67
2022/04/19 11:03:17;;;;;;;4.80;1.20;;;19.90;63.00;;;;;;5053361;28;20021;-67
2022/04/19 11:05:53;;;;;;;1.52;1.05;;;20.50;62.60;;;;;;5053976;28;20047;-67
2022/04/19 11:08:24;;;;;;;6.20;1.60;;;20.30;63.70;;;;;;5053700;28;20021;-66
2022/04/19 11:10:56;;;;;;;4.38;1.30;;;19.70;65.30;;;;;;5052916;28;20032;-66
2022/04/19 11:13:28;;;;;;;4.55;1.55;;;18.80;67.70;;;;;;5053277;28;20530;-67
2022/04/19 11:16:01;;;;;;;5.72;1.65;;;18.50;67.00;;;;;;5053239;28;20024;-67
2022/04/19 11:18:50;;;;;;;5.95;1.42;;;18.30;67.50;;;;;;5053217;28;20060;-66
2022/04/19 11:21:16;;;;;;;1.90;1.15;;;18.70;67.50;;;;;;5047653;28;20078;-68
2022/04/19 11:23:46;;;;;;;2.30;0.90;;;21.70;62.10;;;;;;5053459;28;20437;-67
2022/04/19 11:26:33;;;;;;;4.53;1.25;;;25.00;55.30;;;;;;5052934;28;20056;-66
2022/04/19 11:29:11;;;;;;;3.95;1.30;;;26.40;53.30;;;;;;5053392;28;20032;-67
2022/04/19 11:31:56;;;;;;;4.03;1.25;;;27.00;54.60;;;;;;5053077;28;20024;-66
2022/04/19 11:34:23;;;;;;;3.08;0.98;;;27.20;52.80;;;;;;5052936;28;20021;-67
2022/04/19 11:36:48;;;;;;;3.42;1.02;;;27.70;51.20;;;;;;5053305;28;20048;-67
2022/04/19 11:46:43;;;;;;;;;;;26.70;50.90;;;;;;5053376;28;20531;-66
2022/04/19 11:47:46;;;;;;;;;;;22.70;59.60;;;;;;5053140;28;20417;-67
2022/04/19 11:50:31;;;;;;;;;;;22.80;59.60;;;;;;5053380;28;19993;-66
2022/04/19 11:52:56;;;;;;;;;;;21.90;61.80;;;;;;5053329;28;19909;-68
2022/04/19 11:55:25;;;;;;;;;;;20.50;62.60;;;;;;5053364;28;19998;-66
2022/04/19 11:58:10;;;;;;;6.97;1.77;;;20.20;62.00;;;;;;5053385;28;20302;-67
2022/04/19 12:00:36;;;;;;;5.93;1.75;;;20.10;62.90;;;;;;5052964;28;20104;-68
2022/04/19 12:03:23;;;;;;;8.13;1.38;;;20.50;63.30;;;;;;5053085;28;20051;-65
2022/04/19 12:05:49;;;;;;;;;;;20.10;62.50;;;;;;5053204;28;20031;-66
2022/04/19 12:08:37;;;;;;;7.63;1.70;;;19.80;63.20;;;;;;5052767;28;19995;-66
2022/04/19 12:11:08;;;;;;;5.40;1.77;;;20.20;63.00;;;;;;5052743;28;20617;-66
2022/04/19 12:13:35;;;;;;;2.50;1.27;;;20.10;62.60;;;;;;5052688;28;20025;-67
2022/04/19 12:16:03;;;;;;;4.00;1.40;;;20.10;62.50;;;;;;5052593;28;20021;-67
2022/04/19 12:18:36;;;;;;;3.75;1.20;;;20.10;64.30;;;;;;5052625;28;20076;-68
2022/04/19 12:21:04;;;;;;;4.90;1.67;;;19.70;63.60;;;;;;5052785;28;20036;-66
2022/04/19 12:23:30;;;;;;;;;;;19.50;64.00;;;;;;5056296;28;20541;-66
2022/04/19 12:25:59;;;;;;;;;;;19.20;65.50;;;;;;5056707;28;19920;-66
2022/04/19 12:28:44;;;;;;;;;;;18.80;63.70;;;;;;5056781;28;19911;-67
2022/04/19 12:31:50;;;;;;;;;;;19.00;63.60;;;;;;5056975;28;20424;-68
2022/04/19 12:34:16;;;;;;;;;;;18.70;63.00;;;;;;4940697;29;20286;-67
2022/04/19 12:36:49;;;;;;;;;;;18.60;61.60;;;;;;4956524;29;19918;-67
2022/04/19 12:39:21;;;;;;;;;;;18.20;62.60;;;;;;5009045;28;19927;-66
2022/04/19 12:41:48;;;;;;;;;;;18.00;63.90;;;;;;5056789;28;19905;-67
2022/04/19 12:44:15;;;;;;;;;;;18.00;63.60;;;;;;5056738;28;20323;-67
2022/04/19 12:46:43;;;;;;;4.85;1.30;;;18.10;63.70;;;;;;5056212;28;19987;-66
2022/04/19 12:49:29;;;;;;;5.10;1.23;;;18.30;62.50;;;;;;5055901;28;20025;-68
2022/04/19 12:52:06;;;;;;;5.63;1.08;;;18.10;63.80;;;;;;5055890;28;20075;-68
2022/04/19 12:54:43;;;;;;;4.25;1.08;;;18.00;66.30;;;;;;5055831;28;20021;-66
2022/04/19 12:57:12;;;;;;;;;;;18.60;67.40;;;;;;5056826;28;20025;-68
2022/04/19 12:59:38;;;;;;;;;;;19.30;64.10;;;;;;5056113;28;19954;-68
2022/04/19 13:02:04;;;;;;;5.10;1.10;;;19.40;62.60;;;;;;5055776;28;19904;-67
2022/04/19 13:04:30;;;;;;;3.63;1.02;;;19.50;63.20;;;;;;5055693;28;20037;-67
2022/04/19 13:12:26;;;;;;;3.22;1.10;;;20.10;62.50;;;;;;5055828;28;20438;-68
2022/04/19 13:15:00;;;;;;;2.80;1.17;;;20.30;59.30;;;;;;5055462;28;20025;-68
2022/04/19 13:17:27;;;;;;;;;;;20.10;63.00;;;;;;5056127;28;20478;-66
2022/04/19 13:19:52;;;;;;;;;;;19.30;62.00;;;;;;5055715;28;19908;-67
2022/04/19 13:22:18;;;;;;;;;;;18.60;63.20;;;;;;5056051;28;19983;-67
2022/04/19 13:24:43;;;;;;;;;;;18.40;64.20;;;;;;5055575;28;20004;-67
2022/04/19 13:27:10;;;;;;;;;;;18.30;66.30;;;;;;5055932;28;19999;-67
2022/04/19 13:29:36;;;;;;;;;;;18.30;64.50;;;;;;5055467;28;19965;-68
2022/04/19 13:32:01;;;;;;;;;;;18.20;63.20;;;;;;5055885;28;19911;-67
2022/04/19 13:34:27;;;;;;;;;;;18.00;66.20;;;;;;5054830;28;19905;-67
2022/04/19 13:36:56;;;;;;;3.37;1.13;;;17.80;65.30;;;;;;5055139;28;20016;-68
2022/04/19 13:39:21;;;;;;;5.40;1.40;;;17.40;65.90;;;;;;5055028;28;20032;-68
2022/04/19 13:41:47;;;;;;;5.05;1.20;;;17.20;67.10;;;;;;5054958;28;20100;-68
2022/04/19 13:44:13;;;;;;;3.65;1.00;;;17.40;65.80;;;;;;5055214;28;20028;-67
2022/04/19 13:46:40;;;;;;;3.13;1.15;;;18.10;63.80;;;;;;5054891;28;20025;-68
2022/04/19 13:49:06;;;;;;;7.20;1.63;;;18.60;63.80;;;;;;5054845;28;20032;-68
2022/04/19 13:51:33;;;;;;;3.20;1.10;;;19.00;61.30;;;;;;5036832;28;20496;-68
2022/04/19 13:53:58;;;;;;;;;;;19.40;61.70;;;;;;5055120;28;20152;-68
2022/04/19 13:56:24;;;;;;;4.07;1.08;;;19.30;61.50;;;;;;5054717;28;19943;-68
2022/04/19 13:58:50;;;;;;;3.90;1.40;;;19.50;61.70;;;;;;5054777;28;20036;-68
2022/04/19 14:01:16;;;;;;;;;;;19.30;59.20;;;;;;5054939;28;20056;-68
2022/04/19 14:03:41;;;;;;;;;;;19.00;60.30;;;;;;5055289;28;20325;-68
2022/04/19 14:06:07;;;;;;;;;;;18.70;61.20;;;;;;5054912;28;20397;-68
2022/04/19 14:08:32;;;;;;;;;;;18.30;63.00;;;;;;5054883;28;19904;-68
2022/04/19 14:10:59;;;;;;;;;;;18.30;62.70;;;;;;5055141;28;19955;-68
2022/04/19 14:13:25;;;;;;;;;;;18.50;63.30;;;;;;5054781;28;19904;-68
2022/04/19 14:15:51;;;;;;;;;;;18.70;62.30;;;;;;5054832;28;19992;-68
2022/04/19 14:18:18;;;;;;;8.95;2.08;;;18.90;63.00;;;;;;5054352;28;20383;-68
2022/04/19 14:20:46;;;;;;;;;;;18.90;62.50;;;;;;5054582;28;20082;-69
2022/04/19 14:23:11;;;;;;;;;;;18.80;61.80;;;;;;5054577;28;19912;-68
2022/04/19 14:25:37;;;;;;;;;;;18.50;60.60;;;;;;5054481;28;19916;-68
2022/04/19 14:28:02;;;;;;;4.20;1.20;;;18.50;61.80;;;;;;5054073;28;20275;-68
2022/04/19 14:33:15;;;;;;;2.55;1.33;;;18.30;62.60;;;;;;5053776;28;19954;-67
2022/04/19 14:35:41;;;;;;;2.90;0.93;;;18.40;63.10;;;;;;5053874;28;20029;-69
2022/04/19 14:38:07;;;;;;;3.58;1.50;;;17.90;61.80;;;;;;5054438;28;20017;-68